Flight Track Log - Related Links

Times and Time Zones

All times are in EDT time to prevent confusion due to time zone crossing. See the GTX137 flight status page for this flight to view local times or setup timezone preferences in your user account.

Time Position Orientation Groundspeed Altitude Reporting Facility
EDT Latitude Longitude Course Direction KTS MPH feet Rate Location/Type
Tue 09:06:54 PM 29.6586 -95.2911 309° West 102 117 500  Level Houston Center
Tue 09:08:21 PM 29.6811 -95.3236 309° West 101 116 1,300 568 Climbing Houston Center
Tue 09:09:22 PM 29.7019 -95.3492 313° West 103 119 1,900 595 Climbing Houston Center
Tue 09:10:22 PM 29.7261 -95.3839 309° West 119 137 2,500 488 Climbing Houston Center
Tue 09:11:25 PM 29.7511 -95.4119 316° Northwest 116 133 2,900 240 Climbing Houston Center
Tue 09:12:27 PM 29.7772 -95.4453 312° West 128 147 3,000  Climbing Houston Center
Tue 09:13:25 PM 29.8067 -95.4850 311° West 155 178 2,900 -49 Descending Houston Center
Tue 09:14:30 PM 29.8369 -95.5189 316° Northwest 152 175 2,900  Level Houston Center
Tue 09:15:31 PM 29.8681 -95.5517 318° Northwest 153 176 2,900 295 Level Houston Center
Tue 09:16:32 PM 29.9044 -95.5569 353° North 140 161 3,500 537 Climbing Houston Center
Tue 09:17:34 PM 29.9394 -95.5647 349° North 128 147 4,000 439 Climbing Houston Center
Tue 09:18:35 PM 29.9750 -95.5722 350° North 129 148 4,400 439 Climbing Houston Center
Tue 09:19:37 PM 30.0197 -95.5789 353° North 130 150 4,900 244 Climbing Houston Center
Tue 09:20:38 PM 30.0617 -95.5931 344° North 154 177 4,900  Level Houston Center
Tue 09:21:34 PM 30.1014 -95.6117 338° Northwest 173 199 4,900 390 Level Houston Center
Tue 09:22:41 PM 30.1472 -95.6303 341° North 143 165 5,700 639 Climbing Houston Center
Tue 09:23:36 PM 30.1817 -95.6408 345° North 145 167 6,200 689 Climbing Houston Center
Tue 09:24:43 PM 30.2253 -95.6597 339° North 149 171 7,100 661 Climbing Houston Center
Tue 09:25:43 PM 30.2642 -95.6722 344° North 148 170 7,600 387 Climbing Houston Center
Tue 09:26:47 PM 30.3014 -95.6864 342° North 148 170 7,900 144 Climbing Houston Center
Tue 09:27:48 PM 30.3444 -95.7081 337° Northwest 163 188 7,900  Level Houston Center
Tue 09:28:49 PM 30.4022 -95.7247 346° North 175 201 7,900 49 Level Houston Center
Tue 09:29:51 PM 30.4508 -95.7406 344° North 178 205 8,000 49 Climbing Houston Center
Tue 09:30:52 PM 30.4986 -95.7567 344° North 181 208 8,000 -49 Level Houston Center
Tue 09:31:53 PM 30.5458 -95.7739 343° North 180 207 7,900 -49 Descending Houston Center
Tue 09:32:55 PM 30.5944 -95.7903 344° North 180 207 7,900 49 Level Houston Center
Tue 09:33:56 PM 30.6433 -95.8025 348° North 180 207 8,000  Climbing Houston Center
Tue 09:34:58 PM 30.6992 -95.8222 343° North 182 209 7,900  Descending Houston Center
Tue 09:35:59 PM 30.7467 -95.8408 341° North 182 209 8,000 49 Climbing Houston Center
Tue 09:37:00 PM 30.7947 -95.8544 346° North 182 209 8,000 -49 Level Houston Center
Tue 09:38:01 PM 30.8422 -95.8753 339° North 181 208 7,900  Descending Houston Center
Tue 09:39:03 PM 30.8906 -95.8894 346° North 180 207 8,000 49 Climbing Houston Center
Tue 09:40:04 PM 30.9381 -95.9069 342° North 180 207 8,000  Level Houston Center
Tue 09:41:05 PM 30.9847 -95.9236 343° North 179 206 8,000 -49 Level Houston Center
Tue 09:42:06 PM 31.0317 -95.9406 343° North 178 205 7,900  Descending Houston Center
Tue 09:43:08 PM 31.0783 -95.9572 343° North 177 204 8,000 49 Climbing Houston Center
Tue 09:44:09 PM 31.1258 -95.9744 343° North 177 204 8,000  Level Houston Center
Tue 09:45:10 PM 31.1825 -95.9872 349° North 176 203 8,000  Level Houston Center
Tue 09:46:12 PM 31.2306 -95.9947 352° North 175 201 8,000  Level Houston Center
Tue 09:47:13 PM 31.2778 -96.0061 348° North 175 201 8,000  Level Houston Center
Tue 09:48:14 PM 31.3250 -96.0203 346° North 175 201 8,000  Level Houston Center
Tue 09:49:15 PM 31.3733 -96.0281 352° North 175 201 8,000  Level Houston Center
Tue 09:49:59 PM 31.4056 -96.0339 351° North 172 198 8,000  Level Fort Worth Center
Tue 09:51:01 PM 31.4514 -96.0506 343° North 173 199 8,000  Level Fort Worth Center
Tue 09:52:02 PM 31.4981 -96.0608 349° North 174 200 8,000  Level Fort Worth Center
Tue 09:53:03 PM 31.5456 -96.0750 346° North 174 200 8,000  Level Fort Worth Center
Tue 09:54:05 PM 31.6031 -96.0853 351° North 174 200 8,000  Level Fort Worth Center
Tue 09:55:06 PM 31.6503 -96.0981 347° North 175 201 8,000  Level Fort Worth Center
Tue 09:56:07 PM 31.6981 -96.1111 347° North 175 201 8,000  Level Fort Worth Center
Tue 09:57:09 PM 31.7458 -96.1197 351° North 176 203 8,000  Level Fort Worth Center
Tue 09:58:10 PM 31.7928 -96.1311 348° North 175 201 8,000  Level Fort Worth Center
Tue 09:59:11 PM 31.8389 -96.1408 350° North 171 197 8,000  Level Fort Worth Center
Tue 10:00:13 PM 31.8867 -96.1533 347° North 173 199 8,000  Level Fort Worth Center
Tue 10:01:14 PM 31.9339 -96.1639 349° North 174 200 8,000  Level Fort Worth Center
Tue 10:02:15 PM 31.9847 -96.1764 348° North 175 201 8,000  Level Fort Worth Center
Tue 10:03:16 PM 32.0322 -96.1881 348° North 176 203 8,000 -49 Level Fort Worth Center
Tue 10:04:18 PM 32.0789 -96.2022 346° North 176 203 7,900 -49 Descending Fort Worth Center
Tue 10:05:19 PM 32.1378 -96.2139 350° North 176 203 7,900 -49 Level Fort Worth Center
Tue 10:06:20 PM 32.1878 -96.2253 349° North 179 206 7,800 -295 Descending Fort Worth Center
Tue 10:07:21 PM 32.2375 -96.2522 335° Northwest 190 219 7,300 -443 Descending Fort Worth Center
Tue 10:08:22 PM 32.2856 -96.2833 331° Northwest 195 224 6,900 -195 Descending Fort Worth Center
Tue 10:09:24 PM 32.3339 -96.3136 332° Northwest 182 209 6,900  Level Fort Worth Center
Tue 10:10:25 PM 32.3725 -96.3475 323° Northwest 174 200 6,900 -98 Level Fort Worth Center
Tue 10:11:26 PM 32.4075 -96.3869 316° Northwest 174 200 6,700 -344 Descending Fort Worth Center
Tue 10:12:27 PM 32.4456 -96.4297 317° Northwest 187 215 6,200 -585 Descending Fort Worth Center
Tue 10:13:29 PM 32.4881 -96.4725 320° Northwest 187 215 5,500 -585 Descending Fort Worth Center
Tue 10:14:30 PM 32.5278 -96.5094 322° Northwest 184 212 5,000 -590 Descending Fort Worth Center
Tue 10:15:31 PM 32.5661 -96.5433 323° Northwest 176 203 4,300 -590 Descending Fort Worth Center
Tue 10:16:32 PM 32.6022 -96.5753 323° Northwest 164 189 3,800 -488 Descending Fort Worth Center
Tue 10:17:34 PM 32.6375 -96.6086 321° Northwest 152 175 3,300 -439 Descending Fort Worth Center
Tue 10:18:35 PM 32.6711 -96.6414 321° Northwest 156 180 2,900 -197 Descending Fort Worth Center
Tue 10:19:36 PM 32.7039 -96.6708 323° Northwest 149 171 2,900  Level Fort Worth Center
Tue 10:20:37 PM 32.7358 -96.6992 323° Northwest 146 168 2,900 -49 Level Fort Worth Center
Tue 10:21:39 PM 32.7686 -96.7317 320° Northwest 145 167 2,800 -244 Descending Fort Worth Center
Tue 10:22:40 PM 32.8017 -96.7578 326° Northwest 144 166 2,400 -344 Descending Fort Worth Center
Tue 10:23:41 PM 32.8364 -96.7789 333° Northwest 143 165 2,100 -246 Descending Fort Worth Center
Tue 10:24:42 PM 32.8686 -96.7933 339° North 127 146 1,900 -148 Descending Fort Worth Center
Tue 10:25:43 PM 32.8994 -96.8064 340° North 113 130 1,800 -341 Descending Fort Worth Center
Tue 10:26:45 PM 32.9264 -96.8183 340° North 107 123 1,200 -488 Descending Fort Worth Center
Tue 10:27:46 PM 32.9517 -96.8292 340° North 100 115 800 -246 Descending Fort Worth Center
Tue 10:28:47 PM 32.9753 -96.8369 345° North 99 114 700 -98 Descending Fort Worth Center
Tue 10:30:00 PM 32.9667 -96.8333 North  Level FlightAware Approximate
Tue 10:37:00 PM 32.9686 -96.8364 North  Level Estimated

Login

Don't have an account? Register now (free) for customized features, flight alerts, and more!